Time;durP1;ratioP1;P1;durP2;ratioP2;P2;SDS_P1;SDS_P2;PMS_P1;PMS_P2;Temp;Humidity;BMP_temperature;BMP_pressure;BME280_temperature;BME280_humidity;BME280_pressure;Samples;Min_cycle;Max_cycle;Signal;HPM_P1;HPM_P2
2023/02/23 00:01:10;;;;;;;;;19.00;17.80;;;;;6.22;54.06;98908.53;6242742;27;96473;-65
2023/02/23 00:04:13;;;;;;;;;22.00;21.00;;;;;6.22;54.03;98897.00;6240969;27;97206;-64
2023/02/23 00:07:19;;;;;;;;;20.50;17.50;;;;;6.23;53.81;98901.34;6257591;27;96424;-64
2023/02/23 00:10:24;;;;;;;;;22.00;21.40;;;;;6.21;54.00;98898.84;6254995;27;96723;-64
2023/02/23 00:13:30;;;;;;;;;19.50;19.50;;;;;6.26;53.56;98903.63;6225527;27;96740;-65
2023/02/23 00:16:33;;;;;;;;;24.00;22.00;;;;;6.22;53.64;98902.34;6252662;27;97802;-65
2023/02/23 00:19:37;;;;;;;;;20.50;20.00;;;;;6.12;53.88;98899.19;6250707;27;96326;-65
2023/02/23 00:22:41;;;;;;;;;16.60;15.60;;;;;6.09;54.03;98901.25;6247654;27;96495;-66
2023/02/23 00:25:45;;;;;;;;;22.20;20.00;;;;;6.08;53.95;98893.41;6249511;27;96301;-64
2023/02/23 00:28:50;;;;;;;;;21.67;18.00;;;;;6.11;53.85;98892.19;6249851;27;98376;-65
2023/02/23 00:31:54;;;;;;;;;21.40;20.40;;;;;6.09;54.25;98895.88;6252197;27;96422;-65
2023/02/23 00:34:58;;;;;;;;;17.75;16.50;;;;;6.12;53.98;98891.16;6222470;27;98505;-65
2023/02/23 00:38:01;;;;;;;;;18.75;18.00;;;;;6.02;54.03;98899.50;6260418;27;97106;-64
2023/02/23 00:41:07;;;;;;;;;15.60;14.40;;;;;5.92;54.44;98890.97;6243760;27;96337;-65
2023/02/23 00:44:14;;;;;;;;;22.60;21.60;;;;;6.00;54.12;98893.53;6252987;27;96373;-66
2023/02/23 00:47:17;;;;;;;;;18.00;16.80;;;;;6.01;53.82;98896.00;6251955;27;96849;-63
2023/02/23 00:50:20;;;;;;;;;20.75;20.00;;;;;5.99;54.01;98895.38;6237724;27;96958;-64
2023/02/23 00:53:26;;;;;;;;;17.00;16.75;;;;;5.99;53.88;98906.09;6251565;27;97083;-65
2023/02/23 00:56:29;;;;;;;;;23.80;21.80;;;;;6.07;53.57;98905.94;6262362;27;96859;-65
2023/02/23 00:59:34;;;;;;;;;18.25;17.25;;;;;6.01;53.61;98898.69;6264469;27;96368;-64
2023/02/23 01:02:37;;;;;;;;;19.40;19.40;;;;;6.00;53.78;98898.88;6248344;27;96392;-65
2023/02/23 01:05:40;;;;;;;;;19.00;18.00;;;;;6.05;53.62;98901.81;6263426;27;96401;-64
2023/02/23 01:08:48;;;;;;;;;19.60;17.00;;;;;5.99;53.79;98895.38;6235950;27;96646;-65
2023/02/23 01:11:52;;;;;;;;;19.40;17.40;;;;;5.90;53.76;98893.88;6243458;27;97848;-65
2023/02/23 01:14:56;;;;;;;;;18.00;17.00;;;;;5.85;53.86;98890.06;6246230;27;96568;-64
2023/02/23 01:18:00;;;;;;;;;20.00;18.40;;;;;5.85;53.76;98890.06;6274945;27;97915;-65
2023/02/23 01:21:04;;;;;;;;;23.00;18.00;;;;;5.86;53.95;98892.56;6233143;28;96479;-65
2023/02/23 01:24:08;;;;;;;;;17.00;17.00;;;;;5.80;53.89;98890.66;6241779;27;98477;-65
2023/02/23 01:27:12;;;;;;;;;20.00;19.00;;;;;5.79;53.89;98885.47;6275715;27;96763;-65
2023/02/23 01:30:17;;;;;;;;;23.25;20.25;;;;;5.82;53.75;98883.25;6258924;27;96582;-64
2023/02/23 01:33:20;;;;;;;;;21.40;17.60;;;;;5.79;53.75;98877.44;6238785;27;97168;-65
2023/02/23 01:36:24;;;;;;;;;19.00;17.00;;;;;5.79;53.68;98875.59;6245673;27;98309;-64
2023/02/23 01:39:27;;;;;;;;;19.75;18.25;;;;;5.77;53.86;98872.28;6247443;27;96830;-67
2023/02/23 01:42:31;;;;;;;;;19.60;19.00;;;;;5.77;53.75;98885.66;6256735;27;96595;-65
2023/02/23 01:45:38;;;;;;;;;20.40;19.00;;;;;5.74;53.90;98875.34;6210244;27;96967;-65
2023/02/23 01:48:41;;;;;;;;;20.60;18.60;;;;;5.63;54.11;98867.81;6240970;27;97001;-65
2023/02/23 01:51:49;;;;;;;;;22.00;19.40;;;;;5.61;54.28;98868.03;6240434;27;96806;-64
2023/02/23 01:54:55;;;;;;;;;22.00;19.00;;;;;5.52;55.12;98865.69;6234699;27;96300;-65
2023/02/23 01:58:06;;;;;;;;;24.50;21.25;;;;;5.51;54.68;98854.16;6230906;27;96351;-64
2023/02/23 02:01:12;;;;;;;;;19.40;19.00;;;;;5.57;54.69;98857.91;6241492;27;96475;-65
2023/02/23 02:04:15;;;;;;;;;19.00;19.00;;;;;5.56;54.47;98857.09;6252460;27;96426;-65
2023/02/23 02:07:23;;;;;;;;;21.00;20.00;;;;;5.52;54.70;98846.97;6259837;27;96331;-64
2023/02/23 02:10:43;;;;;;;;;19.00;17.40;;;;;5.43;54.30;98838.22;6246074;27;96478;-65
2023/02/23 02:13:46;;;;;;;;;21.40;19.40;;;;;5.53;54.50;98857.44;6237437;27;96576;-63
2023/02/23 02:17:09;;;;;;;;;22.40;21.00;;;;;5.58;53.97;98859.53;6249201;27;96803;-64
2023/02/23 02:21:05;;;;;;;;;19.50;18.25;;;;;5.53;54.30;98853.94;6235558;27;96706;-64
2023/02/23 02:24:34;;;;;;;;;21.40;18.60;;;;;5.44;54.35;98853.25;6236645;27;98360;-63
2023/02/23 02:28:16;;;;;;;;;22.60;21.80;;;;;5.39;54.59;98850.31;6250680;27;96608;-64
2023/02/23 02:31:49;;;;;;;;;20.60;20.00;;;;;5.42;54.34;98847.28;6257438;27;98096;-65
2023/02/23 02:35:17;;;;;;;;;22.75;20.25;;;;;5.46;54.33;98845.88;6251127;27;96288;-65
2023/02/23 02:38:33;;;;;;;;;23.00;22.00;;;;;5.40;54.43;98832.41;6223955;27;96887;-64
2023/02/23 02:41:49;;;;;;;;;24.00;21.00;;;;;5.31;54.51;98849.59;6248934;27;96665;-65
2023/02/23 02:44:59;;;;;;;;;25.60;24.00;;;;;5.34;54.55;98836.69;6222446;27;98335;-65
2023/02/23 02:48:11;;;;;;;;;24.20;21.60;;;;;5.30;54.38;98837.25;6222134;27;96616;-64
2023/02/23 02:51:21;;;;;;;;;22.00;21.00;;;;;5.26;54.81;98842.16;6255668;27;96517;-64
2023/02/23 02:54:31;;;;;;;;;22.00;20.60;;;;;5.28;54.38;98832.09;6251302;27;96427;-66
2023/02/23 02:57:35;;;;;;;;;22.60;21.60;;;;;5.23;54.65;98827.31;6237915;27;97427;-66
2023/02/23 04:19:22;;;;;;;;;24.00;23.20;;;;;4.63;55.22;98816.13;6261255;27;96937;-65
2023/02/23 04:22:25;;;;;;;;;20.80;18.20;;;;;4.55;55.50;98817.03;6231253;27;98978;-64
2023/02/23 04:25:30;;;;;;;;;22.00;21.00;;;;;4.59;55.52;98822.84;6244028;27;99079;-64
2023/02/23 04:28:33;;;;;;;;;22.00;19.00;;;;;4.63;55.18;98818.78;6258534;27;98635;-63
2023/02/23 04:31:36;;;;;;;;;24.80;24.00;;;;;4.64;55.27;98825.78;6236160;27;96388;-66
2023/02/23 04:34:41;;;;;;;;;22.80;21.00;;;;;4.67;54.81;98825.41;6257078;27;97226;-65
2023/02/23 04:37:44;;;;;;;;;21.20;20.20;;;;;4.70;54.95;98817.00;6246561;27;96213;-65
2023/02/23 04:40:48;;;;;;;;;24.00;20.00;;;;;4.73;54.82;98816.66;6248103;27;96341;-63
2023/02/23 04:43:52;;;;;;;;;20.40;18.40;;;;;4.75;54.64;98814.59;6253974;27;96498;-64
2023/02/23 04:46:56;;;;;;;;;23.00;21.75;;;;;4.79;54.43;98815.88;6258902;27;97016;-65
2023/02/23 04:50:00;;;;;;;;;23.00;21.00;;;;;4.76;54.46;98809.09;6246739;27;96349;-65
2023/02/23 04:53:04;;;;;;;;;22.00;21.00;;;;;4.78;54.33;98806.25;6261717;27;96280;-64
2023/02/23 04:56:07;;;;;;;;;21.00;20.00;;;;;4.70;54.58;98807.16;6244022;27;98370;-64
2023/02/23 04:59:11;;;;;;;;;23.40;21.40;;;;;4.76;53.98;98813.59;6259389;27;96784;-64
2023/02/23 05:02:15;;;;;;;;;22.00;20.00;;;;;4.72;54.20;98810.50;6258111;27;96846;-65
2023/02/23 05:05:20;;;;;;;;;22.20;20.80;;;;;4.72;54.21;98801.63;6261570;27;96796;-65
2023/02/23 05:08:23;;;;;;;;;18.50;18.00;;;;;4.73;54.02;98805.97;6246536;27;98483;-64
2023/02/23 05:11:26;;;;;;;;;19.00;18.00;;;;;4.64;54.20;98810.56;6234324;27;97308;-65
2023/02/23 05:14:30;;;;;;;;;20.75;19.75;;;;;4.74;54.04;98808.44;6250755;27;96336;-64
2023/02/23 05:17:33;;;;;;;;;20.60;19.40;;;;;4.35;53.98;98752.69;6245915;27;97338;-64
2023/02/23 05:20:38;;;;;;;;;18.00;17.00;;;;;4.72;53.99;98807.81;6248616;27;96904;-64
2023/02/23 05:23:42;;;;;;;;;26.00;25.25;;;;;4.69;53.76;98805.50;6252738;27;96470;-64
2023/02/23 05:26:46;;;;;;;;;22.00;21.40;;;;;4.71;53.75;98808.81;6250950;27;96826;-63
2023/02/23 05:29:49;;;;;;;;;21.60;20.00;;;;;4.73;53.79;98819.31;6238994;27;99584;-64
2023/02/23 05:32:52;;;;;;;;;22.00;21.00;;;;;4.78;53.69;98816.94;6236846;27;99673;-64
2023/02/23 05:35:57;;;;;;;;;20.60;19.00;;;;;4.79;53.52;98814.06;6259909;27;96211;-66
2023/02/23 05:39:01;;;;;;;;;21.50;20.00;;;;;4.83;53.53;98816.38;6255924;27;96308;-67
2023/02/23 05:42:04;;;;;;;;;21.50;19.50;;;;;4.77;53.58;98821.44;6246775;27;96943;-66
2023/02/23 05:45:08;;;;;;;;;22.00;20.25;;;;;4.69;53.83;98815.38;6258510;27;96637;-66
2023/02/23 05:48:12;;;;;;;;;21.00;19.50;;;;;4.82;53.49;98810.19;6256880;27;97970;-65
2023/02/23 05:51:18;;;;;;;;;23.00;19.80;;;;;4.82;53.35;98810.19;6250668;27;96756;-66
2023/02/23 05:54:22;;;;;;;;;17.80;17.00;;;;;4.83;53.35;98811.84;6257598;27;96538;-66
2023/02/23 05:57:26;;;;;;;;;23.40;21.40;;;;;4.83;53.58;98811.03;6243710;27;96770;-65
2023/02/23 06:00:29;;;;;;;;;17.40;16.40;;;;;4.90;53.35;98815.41;6240553;27;96817;-65
2023/02/23 06:03:32;;;;;;;;;21.20;19.60;;;;;4.91;53.28;98817.06;6243238;27;96583;-66
2023/02/23 06:06:37;;;;;;;;;21.50;20.00;;;;;4.96;53.44;98816.50;6255704;27;96331;-63
2023/02/23 06:09:40;;;;;;;;;21.00;20.20;;;;;5.12;52.93;98819.81;6258285;27;97463;-64
2023/02/23 06:12:46;;;;;;;;;23.00;21.20;;;;;5.12;52.88;98825.16;6258939;27;96736;-65
2023/02/23 06:15:49;;;;;;;;;21.00;20.00;;;;;5.13;52.83;98821.44;6255484;27;96489;-65
2023/02/23 06:18:53;;;;;;;;;19.00;17.00;;;;;5.29;52.54;98822.22;6258402;27;97885;-64
2023/02/23 06:21:57;;;;;;;;;19.40;17.00;;;;;5.46;52.15;98823.66;6238732;27;96331;-64
2023/02/23 06:25:03;;;;;;;;;20.00;19.00;;;;;5.54;51.81;98824.34;6253127;27;96228;-65
2023/02/23 06:28:07;;;;;;;;;19.60;18.60;;;;;5.74;51.53;98831.72;6258620;27;96570;-64
2023/02/23 06:31:10;;;;;;;;;21.00;18.60;;;;;5.91;51.02;98835.84;6249880;27;98382;-64
2023/02/23 06:34:14;;;;;;;;;20.60;17.80;;;;;6.05;50.41;98833.06;6251599;27;96311;-63
2023/02/23 06:37:19;;;;;;;;;21.80;20.40;;;;;6.15;50.22;98837.25;6247904;27;96331;-68
2023/02/23 06:40:23;;;;;;;;;19.75;19.00;;;;;6.31;50.00;98834.25;6241151;27;96793;-65
2023/02/23 06:43:27;;;;;;;;;21.00;18.00;;;;;6.53;49.40;98839.38;6220725;27;96648;-65
2023/02/23 06:46:35;;;;;;;;;21.40;20.80;;;;;6.66;48.80;98840.44;6244676;27;97639;-65
2023/02/23 06:49:39;;;;;;;;;19.00;17.20;;;;;6.84;48.15;98836.22;6264224;27;96877;-64
2023/02/23 06:52:44;;;;;;;;;20.60;18.60;;;;;7.19;47.91;98842.34;6261557;27;96624;-64
2023/02/23 06:55:47;;;;;;;;;19.60;17.60;;;;;7.59;46.53;98835.22;6264410;27;96329;-63
2023/02/23 06:58:50;;;;;;;;;19.40;19.00;;;;;8.12;45.80;98825.34;6261932;27;96367;-64
2023/02/23 07:01:54;;;;;;;;;21.40;18.40;;;;;8.67;44.46;98831.28;6257862;27;96990;-64
2023/02/23 07:04:57;;;;;;;;;19.20;18.20;;;;;9.18;43.51;98835.88;6264346;27;96236;-65
2023/02/23 07:08:02;;;;;;;;;16.00;14.00;;;;;9.63;42.39;98842.84;6237890;27;96604;-64
2023/02/23 07:11:07;;;;;;;;;22.40;20.40;;;;;9.89;41.52;98834.63;6213085;28;98760;-63
2023/02/23 07:14:11;;;;;;;;;21.60;19.80;;;;;10.41;40.76;98841.44;6238550;27;98634;-65
2023/02/23 07:17:28;;;;;;;;;21.00;20.60;;;;;11.06;39.31;98843.66;6246498;27;96396;-68
2023/02/23 07:20:33;;;;;;;;;19.40;16.60;;;;;11.59;37.75;98843.81;6256131;27;96457;-67
2023/02/23 07:23:38;;;;;;;;;21.60;20.00;;;;;12.21;37.27;98842.50;6265662;27;96773;-66
2023/02/23 07:26:45;;;;;;;;;20.40;19.00;;;;;12.61;35.96;98847.22;6260863;27;96258;-66
2023/02/23 07:29:48;;;;;;;;;21.00;19.00;;;;;13.16;35.20;98842.22;6244962;27;96959;-66
2023/02/23 07:32:53;;;;;;;;;22.50;21.00;;;;;13.52;34.76;98830.22;6247131;27;96785;-67
2023/02/23 07:35:58;;;;;;;;;17.75;17.00;;;;;14.01;33.88;98850.34;6268127;27;96276;-67
2023/02/23 07:39:04;;;;;;;;;22.00;21.00;;;;;14.22;33.04;98827.94;6646405;22;98367;-89
2023/02/23 07:42:08;;;;;;;;;24.00;23.00;;;;;14.80;32.67;98834.81;6169747;22;97993;-57
2023/02/23 07:45:11;;;;;;;;;23.50;23.50;;;;;14.97;32.56;98836.41;6164012;28;97227;-57
2023/02/23 07:48:15;;;;;;;;;21.40;20.60;;;;;15.23;31.97;98843.00;6124700;28;96632;-58
2023/02/23 07:51:18;;;;;;;;;22.00;21.00;;;;;15.34;32.07;98841.22;6145732;28;96642;-57
2023/02/23 07:54:24;;;;;;;;;25.00;22.50;;;;;15.48;31.54;98834.31;6151565;28;96549;-57
2023/02/23 07:57:28;;;;;;;;;21.00;19.20;;;;;15.78;31.18;98829.25;6130719;28;97638;-57
2023/02/23 08:00:31;;;;;;;;;22.00;20.00;;;;;16.33;30.36;98828.91;6161423;28;98847;-57
2023/02/23 08:03:35;;;;;;;;;23.60;21.60;;;;;16.86;29.75;98827.94;6145038;28;96687;-57
2023/02/23 08:06:38;;;;;;;;;21.00;21.00;;;;;17.51;28.45;98832.03;6163816;28;96567;-58
2023/02/23 08:09:43;;;;;;;;;24.25;21.25;;;;;18.18;27.79;98821.00;6142183;28;99011;-57
2023/02/23 08:12:46;;;;;;;;;20.00;19.40;;;;;18.94;26.77;98834.59;6164289;28;96533;-57
2023/02/23 08:15:49;;;;;;;;;25.40;23.00;;;;;19.46;25.96;98817.75;6151186;28;96257;-59
2023/02/23 08:18:53;;;;;;;;;22.50;19.00;;;;;20.01;25.75;98829.47;6153393;28;96286;-58
2023/02/23 08:21:56;;;;;;;;;22.00;21.00;;;;;20.25;24.73;98815.88;6124639;28;98869;-57
2023/02/23 08:25:04;;;;;;;;;23.80;21.00;;;;;20.24;24.84;98823.28;6152505;28;97755;-57
2023/02/23 08:28:07;;;;;;;;;20.00;18.60;;;;;19.88;24.82;98830.94;6149146;28;96668;-58
2023/02/23 08:31:11;;;;;;;;;23.60;22.60;;;;;19.91;24.98;98832.28;6155116;28;97254;-57
2023/02/23 08:34:15;;;;;;;;;23.60;21.20;;;;;20.35;24.71;98821.31;6150227;28;96367;-58
2023/02/23 08:37:18;;;;;;;;;25.40;22.80;;;;;20.98;24.00;98830.28;6148498;28;96618;-58
2023/02/23 08:40:23;;;;;;;;;24.50;21.00;;;;;21.79;22.97;98826.56;6134547;28;98737;-57
2023/02/23 08:43:27;;;;;;;;;22.00;20.20;;;;;22.51;21.75;98818.84;6150385;28;96870;-58
2023/02/23 08:46:30;;;;;;;;;22.75;20.75;;;;;23.19;21.28;98827.22;6147884;28;98389;-58
2023/02/23 08:49:33;;;;;;;;;22.40;20.40;;;;;23.53;20.97;98823.25;6145115;28;96407;-58
2023/02/23 08:52:37;;;;;;;;;26.00;23.00;;;;;24.25;20.09;98831.56;6135778;28;98330;-59
2023/02/23 08:55:41;;;;;;;;;21.00;20.60;;;;;24.99;19.86;98827.19;6131552;28;97417;-58
2023/02/23 08:58:45;;;;;;;;;24.00;22.00;;;;;25.21;19.70;98818.03;6135075;28;96679;-59
2023/02/23 09:01:48;;;;;;;;;25.00;21.40;;;;;25.64;19.17;98816.25;6146933;28;96359;-58
2023/02/23 09:04:52;;;;;;;;;25.00;23.20;;;;;25.76;19.30;98819.16;6131468;28;97692;-58
2023/02/23 09:07:58;;;;;;;;;27.60;24.80;;;;;25.79;18.78;98821.31;6150038;28;96547;-59
2023/02/23 09:11:03;;;;;;;;;26.40;24.40;;;;;26.10;18.85;98810.09;6150831;28;96491;-59
2023/02/23 09:14:07;;;;;;;;;21.00;20.00;;;;;26.19;18.58;98807.34;6157997;28;96382;-58
2023/02/23 09:17:11;;;;;;;;;23.80;22.00;;;;;26.24;18.75;98812.75;6157320;28;96858;-59
2023/02/23 09:20:16;;;;;;;;;24.00;22.40;;;;;26.14;17.90;98807.50;6122978;28;96290;-58
2023/02/23 09:23:19;;;;;;;;;22.00;22.00;;;;;26.24;18.44;98809.97;6140717;28;98308;-58
2023/02/23 09:26:25;;;;;;;;;24.00;22.00;;;;;26.33;18.56;98805.25;6137853;28;96915;-58
2023/02/23 09:29:28;;;;;;;;;27.60;25.00;;;;;26.09;18.84;98804.91;6138931;28;99026;-58
2023/02/23 09:32:31;;;;;;;;;23.80;23.00;;;;;25.62;19.13;98809.41;6150838;28;96261;-58
2023/02/23 09:35:36;;;;;;;;;24.00;23.00;;;;;25.28;19.04;98799.88;6142578;28;96870;-58
2023/02/23 09:38:40;;;;;;;;;24.00;23.00;;;;;25.19;19.89;98793.53;6135007;28;96833;-58
2023/02/23 09:41:56;;;;;;;;;25.40;23.00;;;;;25.34;19.68;98798.59;6129659;28;96254;-58
2023/02/23 09:45:12;;;;;;;;;24.20;22.00;;;;;25.56;19.14;98805.19;6146486;28;97629;-58
2023/02/23 09:48:19;;;;;;;;;27.75;21.00;;;;;25.55;19.06;98798.03;6158901;28;96307;-59
2023/02/23 09:51:24;;;;;;;;;24.00;21.50;;;;;25.80;19.27;98806.34;6130425;28;96661;-58
2023/02/23 09:54:32;;;;;;;;;24.00;21.20;;;;;26.11;18.91;98805.38;6146097;28;97241;-59
2023/02/23 09:57:40;;;;;;;;;24.80;24.00;;;;;26.07;18.65;98807.16;6130889;28;97116;-59
2023/02/23 10:00:51;;;;;;;;;25.25;24.25;;;;;25.88;19.03;98796.44;6133380;28;96701;-60
2023/02/23 10:04:03;;;;;;;;;26.40;23.60;;;;;26.14;19.04;98802.81;6146188;28;96254;-59
2023/02/23 10:07:15;;;;;;;;;29.25;26.50;;;;;25.40;19.05;98793.75;6147584;28;96230;-59
2023/02/23 10:10:28;;;;;;;;;25.00;24.00;;;;;25.32;20.29;98797.28;6131299;28;96516;-58
2023/02/23 10:13:42;;;;;;;;;24.00;21.00;;;;;25.34;19.68;98782.03;6144772;28;96386;-59
2023/02/23 10:17:01;;;;;;;;;25.00;22.80;;;;;25.52;19.66;98782.88;6144759;28;96518;-59
2023/02/23 10:20:15;;;;;;;;;23.00;23.00;;;;;25.46;19.94;98779.47;6164500;28;96265;-58
2023/02/23 10:23:23;;;;;;;;;30.00;26.00;;;;;25.21;19.81;98776.66;6147391;28;96897;-58
2023/02/23 10:26:33;;;;;;;;;26.20;24.20;;;;;24.75;20.08;98783.41;6135792;28;96934;-59
2023/02/23 10:29:42;;;;;;;;;29.00;27.00;;;;;24.52;20.43;98781.84;6121586;28;96654;-59
2023/02/23 10:32:51;;;;;;;;;26.00;25.00;;;;;24.71;20.86;98781.59;6152155;28;96818;-59
2023/02/23 10:35:59;;;;;;;;;24.00;22.00;;;;;24.52;20.70;98771.63;6129779;28;96649;-58
2023/02/23 10:39:15;;;;;;;;;26.00;23.00;;;;;24.61;20.98;98766.16;6145320;28;98509;-58
2023/02/23 10:42:23;;;;;;;;;24.80;24.20;;;;;24.72;20.68;98778.53;6163160;28;96560;-58
2023/02/23 10:45:29;;;;;;;;;24.33;22.00;;;;;24.66;20.64;98770.72;6140699;28;96530;-59
2023/02/23 10:48:39;;;;;;;;;26.33;24.00;;;;;24.79;20.89;98765.09;6135588;28;96692;-59
2023/02/23 10:51:45;;;;;;;;;25.80;22.80;;;;;24.89;20.79;98756.56;6142948;28;96312;-58
2023/02/23 10:54:50;;;;;;;;;25.00;23.00;;;;;24.95;20.69;98752.56;6162263;28;96415;-58
2023/02/23 10:58:08;;;;;;;;;25.00;24.00;;;;;25.09;20.83;98752.44;6129475;28;96264;-58
2023/02/23 11:01:15;;;;;;;;;26.20;25.00;;;;;25.28;20.63;98746.63;6129142;28;96876;-59
2023/02/23 11:04:22;;;;;;;;;28.00;24.00;;;;;25.64;20.25;98733.41;6119320;28;96903;-58
2023/02/23 11:07:29;;;;;;;;;28.80;25.20;;;;;25.77;20.24;98740.72;6154894;28;97548;-60
2023/02/23 11:10:33;;;;;;;;;28.40;24.00;;;;;25.81;20.18;98738.09;6150047;28;96286;-58
2023/02/23 11:13:40;;;;;;;;;25.00;24.00;;;;;25.75;19.86;98734.72;6146986;28;96392;-59
2023/02/23 11:16:45;;;;;;;;;25.00;24.00;;;;;25.72;19.93;98732.59;6156054;28;97186;-59
2023/02/23 11:19:48;;;;;;;;;24.00;23.00;;;;;25.44;20.30;98728.50;6148258;28;96342;-58
2023/02/23 11:22:52;;;;;;;;;27.00;22.50;;;;;25.51;20.70;98730.78;6153077;28;96944;-59
2023/02/23 11:26:00;;;;;;;;;29.00;26.00;;;;;25.64;20.54;98714.09;6165020;28;96840;-59
2023/02/23 11:29:15;;;;;;;;;26.40;24.00;;;;;25.71;20.68;98716.34;6166968;28;96369;-60
2023/02/23 11:32:22;;;;;;;;;27.40;24.40;;;;;25.59;20.30;98708.72;6152074;28;96311;-58
2023/02/23 11:35:30;;;;;;;;;27.00;25.00;;;;;25.42;20.19;98706.72;6148269;28;96265;-59
2023/02/23 11:38:34;;;;;;;;;25.00;24.00;;;;;25.36;20.89;98685.94;6153918;28;96262;-58
2023/02/23 11:41:37;;;;;;;;;27.50;25.00;;;;;25.71;20.95;98703.34;6131933;28;98702;-58
2023/02/23 11:44:41;;;;;;;;;26.00;24.60;;;;;26.00;20.45;98696.38;6142601;28;96745;-58
2023/02/23 11:47:49;;;;;;;;;24.80;23.80;;;;;26.19;20.60;98697.59;6170729;28;97861;-58
2023/02/23 11:50:54;;;;;;;;;26.50;24.75;;;;;26.29;20.20;98700.03;6165673;28;96497;-59
2023/02/23 11:53:59;;;;;;;;;23.80;20.20;;;;;26.20;19.99;98693.69;6164487;28;96536;-58
2023/02/23 11:57:02;;;;;;;;;23.25;22.75;;;;;26.20;20.18;98690.94;6154212;28;96262;-60
2023/02/23 12:00:11;;;;;;;;;23.00;22.00;;;;;25.97;20.47;98685.94;6133595;28;97671;-59
2023/02/23 12:03:22;;;;;;;;;27.40;24.00;;;;;25.60;20.57;98681.94;6148150;28;97035;-58
2023/02/23 12:06:29;;;;;;;;;26.60;24.00;;;;;25.30;21.30;98678.16;6137710;28;98536;-58
2023/02/23 12:09:35;;;;;;;;;27.40;23.60;;;;;24.96;21.59;98685.25;6164712;28;96499;-58
2023/02/23 12:12:47;;;;;;;;;27.00;25.00;;;;;24.66;22.01;98674.22;6156521;28;96892;-59
2023/02/23 12:15:57;;;;;;;;;27.20;25.00;;;;;24.22;22.35;98673.22;6145996;28;96461;-58
2023/02/23 12:19:10;;;;;;;;;26.75;25.00;;;;;23.62;22.90;98659.84;6166074;28;96300;-58
2023/02/23 12:22:18;;;;;;;;;26.00;25.00;;;;;23.16;23.10;98668.34;6165708;28;96276;-58
2023/02/23 12:25:27;;;;;;;;;28.40;25.40;;;;;22.71;23.96;98664.63;6166035;28;96985;-58
2023/02/23 12:28:36;;;;;;;;;24.00;22.00;;;;;22.10;24.82;98653.97;6165602;28;96371;-58
2023/02/23 12:31:47;;;;;;;;;25.00;24.00;;;;;21.41;25.58;98655.63;6164739;28;96556;-58
2023/02/23 12:34:58;;;;;;;;;27.00;25.00;;;;;20.97;26.08;98657.91;6164402;28;96967;-58
2023/02/23 12:38:09;;;;;;;;;27.00;25.00;;;;;20.60;26.74;98651.25;6164386;28;96551;-58
2023/02/23 12:41:16;;;;;;;;;26.60;24.60;;;;;20.25;27.22;98646.97;6146021;28;98454;-58
2023/02/23 12:44:33;;;;;;;;;31.20;27.40;;;;;19.93;28.10;98644.03;6164371;28;97020;-59
2023/02/23 12:47:44;;;;;;;;;26.50;24.75;;;;;19.55;28.59;98645.72;6146394;28;96436;-58
2023/02/23 12:50:53;;;;;;;;;27.80;25.00;;;;;19.19;28.97;98619.72;6164945;28;96362;-59
2023/02/23 12:53:56;;;;;;;;;29.00;27.00;;;;;19.18;28.90;98634.47;6161890;28;96819;-58
2023/02/23 12:57:12;;;;;;;;;30.50;26.50;;;;;19.00;29.33;98625.03;6158187;28;96642;-58
2023/02/23 13:00:46;;;;;;;;;31.00;28.00;;;;;18.73;29.67;98624.63;6148975;28;96394;-58
2023/02/23 13:04:10;;;;;;;;;31.20;30.00;;;;;18.66;30.38;98616.78;6142454;28;97358;-58
2023/02/23 13:07:21;;;;;;;;;29.00;24.00;;;;;18.52;30.10;98619.22;6160426;28;96538;-58
2023/02/23 13:10:32;;;;;;;;;27.00;26.00;;;;;18.27;30.74;98608.44;6126712;28;97764;-58
2023/02/23 13:13:44;;;;;;;;;27.00;23.60;;;;;18.16;31.35;98599.47;6157184;28;96858;-58
2023/02/23 13:16:56;;;;;;;;;26.00;25.00;;;;;18.15;31.44;98606.00;6152791;28;97498;-58
2023/02/23 13:20:06;;;;;;;;;29.25;26.50;;;;;17.93;31.78;98585.63;6163829;28;96879;-58
2023/02/23 13:23:21;;;;;;;;;29.60;27.00;;;;;18.03;31.54;98600.03;6146129;28;96494;-58
2023/02/23 13:26:35;;;;;;;;;33.00;30.00;;;;;17.92;31.96;98597.63;6141250;28;96353;-58
2023/02/23 13:29:41;;;;;;;;;27.00;25.25;;;;;17.76;32.02;98602.28;6123835;28;96547;-57
2023/02/23 13:32:44;;;;;;;;;26.80;25.80;;;;;17.56;32.57;98596.81;6142913;28;96334;-59
2023/02/23 13:35:48;;;;;;;;;30.00;26.00;;;;;17.47;32.90;98593.81;6134606;28;98482;-58
2023/02/23 13:39:19;;;;;;;;;27.60;25.60;;;;;17.39;32.72;98585.38;6152284;28;98377;-58
2023/02/23 13:42:39;;;;;;;;;32.20;30.00;;;;;17.29;33.08;98567.97;6152692;28;96311;-58
2023/02/23 13:45:55;;;;;;;;;29.00;27.00;;;;;17.30;33.29;98579.66;6144575;28;96458;-58
2023/02/23 13:49:04;;;;;;;;;31.25;27.25;;;;;17.28;33.53;98574.50;6143577;28;97258;-58
2023/02/23 13:52:22;;;;;;;;;27.25;26.00;;;;;17.25;33.69;98574.22;6149091;28;96822;-58
2023/02/23 13:55:50;;;;;;;;;32.00;26.75;;;;;17.28;33.96;98569.03;6129350;28;98568;-58
2023/02/23 13:59:00;;;;;;;;;27.00;24.80;;;;;17.26;33.88;98567.66;6153633;28;96354;-57
2023/02/23 14:02:27;;;;;;;;;34.00;29.00;;;;;17.26;33.77;98565.75;6149675;28;96294;-58
2023/02/23 14:05:32;;;;;;;;;28.00;24.40;;;;;17.22;33.75;98556.50;6149445;28;96478;-58
2023/02/23 14:08:39;;;;;;;;;25.00;24.00;;;;;17.14;33.98;98554.34;6143674;28;97613;-59
2023/02/23 14:11:47;;;;;;;;;23.00;21.00;;;;;17.09;34.04;98554.31;6126552;28;98360;-59
2023/02/23 14:14:51;;;;;;;;;25.00;24.00;;;;;17.11;33.98;98552.13;6124849;28;98390;-58
2023/02/23 14:17:58;;;;;;;;;27.00;23.00;;;;;17.08;34.43;98547.25;6149612;28;96485;-58
2023/02/23 14:21:12;;;;;;;;;30.00;26.60;;;;;17.04;34.39;98548.06;6150757;28;97401;-58
2023/02/23 14:24:21;;;;;;;;;26.60;25.60;;;;;17.09;34.24;98554.31;6133158;28;96732;-58
2023/02/23 14:27:37;;;;;;;;;29.00;26.50;;;;;16.99;34.71;98535.25;6144382;28;96774;-58
2023/02/23 14:30:49;;;;;;;;;27.00;24.60;;;;;16.96;34.71;98537.72;6148825;28;96825;-58
2023/02/23 14:33:59;;;;;;;;;27.80;25.60;;;;;16.81;35.22;98541.25;6130239;28;96835;-57
2023/02/23 14:37:14;;;;;;;;;27.80;26.00;;;;;16.70;35.13;98536.84;6143627;28;97006;-58
2023/02/23 14:40:21;;;;;;;;;26.00;25.00;;;;;16.63;35.59;98530.84;6147396;28;96324;-58
2023/02/23 14:43:41;;;;;;;;;25.00;24.00;;;;;16.58;35.63;98531.66;6144091;28;96492;-58
2023/02/23 14:46:56;;;;;;;;;28.00;27.00;;;;;16.53;35.66;98522.63;6138871;28;96295;-58
2023/02/23 14:50:02;;;;;;;;;28.50;27.00;;;;;16.45;35.71;98522.09;6139969;28;96297;-58
2023/02/23 14:53:13;;;;;;;;;26.00;23.00;;;;;16.36;36.03;98520.97;6143374;28;96561;-57
2023/02/23 14:56:21;;;;;;;;;25.40;24.80;;;;;16.24;36.23;98508.69;6144910;28;96297;-57
2023/02/23 14:59:39;;;;;;;;;28.50;25.50;;;;;16.22;36.37;98503.53;6145546;28;96883;-58
2023/02/23 15:02:55;;;;;;;;;25.60;24.60;;;;;16.06;36.67;98507.25;6161406;28;96556;-59
2023/02/23 15:06:00;;;;;;;;;24.00;22.00;;;;;15.93;36.75;98505.84;6138497;28;98432;-58
2023/02/23 15:09:05;;;;;;;;;22.20;20.20;;;;;15.81;37.27;98499.81;6137324;28;96657;-58
2023/02/23 15:12:19;;;;;;;;;26.60;23.40;;;;;15.69;37.04;98496.47;6142572;28;99050;-57
2023/02/23 15:15:25;;;;;;;;;26.00;24.00;;;;;15.57;37.60;98493.16;6159216;28;97609;-57
2023/02/23 15:18:33;;;;;;;;;18.25;17.00;;;;;15.44;37.61;98488.97;6130874;28;96644;-57
2023/02/23 15:21:39;;;;;;;;;24.60;22.40;;;;;15.36;37.57;98486.75;6164948;28;96628;-58
2023/02/23 15:24:47;;;;;;;;;28.25;25.50;;;;;15.36;37.67;98488.66;6161740;28;96601;-57
2023/02/23 15:27:51;;;;;;;;;25.00;23.00;;;;;15.28;38.12;98479.13;6161963;28;96246;-57
2023/02/23 15:30:57;;;;;;;;;24.00;23.00;;;;;15.19;38.27;98477.97;6145860;28;97144;-57
2023/02/23 15:34:00;;;;;;;;;24.40;23.80;;;;;15.08;38.65;98473.53;6156512;28;96296;-57
2023/02/23 15:37:07;;;;;;;;;24.60;22.00;;;;;15.01;38.42;98470.22;6157614;28;96495;-58
2023/02/23 15:40:15;;;;;;;;;25.00;23.00;;;;;14.90;39.03;98471.25;6151273;28;96560;-58
2023/02/23 15:43:18;;;;;;;;;22.25;21.00;;;;;14.77;39.57;98469.75;6162500;28;96533;-57